.
WxDataArchive / Data Records for 2010-03-21
2010-03-20 March 2010 2010-03-22

Data Records for Sunday, 21 March 2010

Time	Temp	Chill	HIndex	Humid	Dewpt	 Wind 	HiWind	WindDir	Rain 	Barom 
-----	----	-----	------	-----	-----	------	------	-------	-----	----- 
00:00	38.0	38.0	38.0	77	31.4	3	6	112	0.00	30.117 
00:05	37.9	37.9	37.9	77	31.3	3	10	90	0.00	30.117 
00:10	37.9	37.9	37.9	77	31.3	3	11	90	0.00	30.117 
00:15	37.9	37.9	37.9	77	31.3	2	7	90	0.00	30.120 
00:20	37.8	37.8	37.8	77	31.2	2	7	90	0.00	30.120 
00:25	37.8	37.8	37.8	76	30.9	2	10	45	0.00	30.120 
00:30	37.6	37.6	37.6	76	30.7	2	6	112	0.00	30.114 
00:35	37.3	37.3	37.3	75	30.1	3	9	45	0.00	30.114 
00:40	37.3	37.3	37.3	76	30.4	2	6	135	0.00	30.114 
00:45	37.2	37.2	37.2	76	30.3	3	10	112	0.00	30.113 
00:50	37.2	37.2	37.2	76	30.3	1	12	112	0.00	30.113 
00:55	37.2	37.2	37.2	77	30.7	1	4	45	0.00	30.113 
01:00	37.2	37.2	37.2	76	30.3	3	10	112	0.00	30.112 
01:05	37.0	37.0	37.0	76	30.2	3	7	112	0.00	30.112 
01:10	37.0	37.0	37.0	76	30.2	2	7	135	0.00	30.112 
01:15	36.9	36.9	36.9	75	29.7	2	5	112	0.00	30.107 
01:20	36.9	36.9	36.9	75	29.7	2	9	45	0.00	30.107 
01:25	36.8	36.8	36.8	75	29.6	2	9	112	0.00	30.107 
01:30	36.6	36.6	36.6	75	29.4	2	7	112	0.00	30.099 
01:35	36.5	36.5	36.5	75	29.3	3	6	45	0.00	30.099 
01:40	36.5	36.5	36.5	75	29.3	3	10	90	0.00	30.099 
01:45	36.5	36.5	36.5	76	29.7	2	8	112	0.00	30.095 
01:50	36.3	36.3	36.3	76	29.5	3	10	112	0.00	30.095 
01:55	36.3	36.3	36.3	76	29.5	2	5	90	0.00	30.095 
02:00	36.3	36.3	36.3	76	29.5	3	10	112	0.00	30.086 
02:05	36.2	31.2	36.2	76	29.4	6	13	90	0.00	30.086 
02:10	36.0	36.0	36.0	76	29.2	3	11	112	0.00	30.086 
02:15	36.0	32.7	36.0	76	29.2	4	12	90	0.00	30.082 
02:20	35.9	35.9	35.9	77	29.4	2	6	90	0.00	30.082 
02:25	35.9	35.9	35.9	77	29.4	3	10	112	0.00	30.082 
02:30	35.9	35.9	35.9	77	29.4	2	6	45	0.00	30.085 
02:35	35.9	35.9	35.9	78	29.7	1	8	90	0.00	30.085 
02:40	35.9	35.9	35.9	78	29.7	1	5	90	0.00	30.085 
02:45	35.8	35.8	35.8	78	29.6	1	4	112	0.00	30.094 
02:50	35.6	35.6	35.6	78	29.4	2	12	22	0.00	30.094 
02:55	35.5	35.5	35.5	79	29.6	2	7	112	0.00	30.094 
03:00	35.3	35.3	35.3	79	29.4	2	7	22	0.00	30.094 
03:05	35.3	35.3	35.3	79	29.4	3	10	68	0.00	30.094 
03:10	35.2	31.8	35.2	79	29.4	4	12	112	0.00	30.094 
03:15	35.2	35.2	35.2	79	29.4	3	12	112	0.00	30.095 
03:20	35.0	35.0	35.0	80	29.5	1	6	45	0.00	30.095 
03:25	35.0	35.0	35.0	80	29.5	3	10	90	0.00	30.095 
03:30	35.0	35.0	35.0	80	29.5	3	10	112	0.00	30.089 
03:35	35.0	35.0	35.0	80	29.5	3	9	112	0.00	30.089 
03:40	35.0	35.0	35.0	80	29.5	2	5	90	0.00	30.089 
03:45	34.9	34.9	34.9	80	29.4	3	5	90	0.00	30.082 
03:50	34.9	34.9	34.9	80	29.4	3	10	112	0.00	30.082 
03:55	34.9	34.9	34.9	81	29.7	3	13	90	0.00	30.082 
04:00	34.7	30.2	34.7	80	29.2	5	11	112	0.00	30.082 
04:05	34.6	31.1	34.6	80	29.1	4	14	112	0.00	30.082 
04:10	34.6	29.3	34.6	80	29.1	6	16	112	0.00	30.082 
04:15	34.4	29.9	34.4	81	29.2	5	10	112	0.00	30.081 
04:20	34.4	34.4	34.4	81	29.2	3	7	112	0.00	30.081 
04:25	34.4	34.4	34.4	81	29.2	3	7	90	0.00	30.081 
04:30	34.3	34.3	34.3	81	29.1	2	7	90	0.00	30.083 
04:35	34.3	30.7	34.3	81	29.1	4	11	112	0.00	30.083 
04:40	34.1	34.1	34.1	82	29.2	3	10	112	0.00	30.083 
04:45	34.1	34.1	34.1	82	29.2	3	11	112	0.00	30.083 
04:50	34.3	34.3	34.3	82	29.4	1	4	45	0.00	30.083 
04:55	34.3	34.3	34.3	82	29.4	2	7	90	0.00	30.083 
05:00	34.1	34.1	34.1	82	29.2	3	9	45	0.00	30.083 
05:05	34.0	34.0	34.0	82	29.1	2	7	112	0.00	30.083 
05:10	33.8	33.8	33.8	82	28.9	2	7	112	0.00	30.083 
05:15	33.8	33.8	33.8	81	28.6	3	7	112	0.00	30.086 
05:20	33.8	33.8	33.8	81	28.6	3	10	112	0.00	30.086 
05:25	33.7	33.7	33.7	81	28.5	3	10	112	0.00	30.086 
05:30	33.7	33.7	33.7	81	28.5	3	9	112	0.00	30.086 
05:35	33.7	30.0	33.7	81	28.5	4	9	112	0.00	30.086 
05:40	33.7	33.7	33.7	81	28.5	3	7	112	0.00	30.086 
05:45	33.7	33.7	33.7	81	28.5	2	8	135	0.00	30.088 
05:50	33.7	30.0	33.7	82	28.8	4	8	112	0.00	30.088 
05:55	33.7	33.7	33.7	82	28.8	3	7	90	0.00	30.088 
06:00	33.7	33.7	33.7	82	28.8	2	9	90	0.00	30.099 
06:05	33.7	33.7	33.7	82	28.8	3	9	112	0.00	30.099 
06:10	33.7	33.7	33.7	82	28.8	2	7	45	0.00	30.099 
06:15	33.7	33.7	33.7	82	28.8	2	8	22	0.00	30.097 
06:20	33.7	33.7	33.7	83	29.1	3	10	90	0.00	30.097 
06:25	33.7	33.7	33.7	83	29.1	2	7	112	0.00	30.097 
06:30	33.5	33.5	33.5	83	28.9	3	9	90	0.00	30.091 
06:35	33.5	33.5	33.5	83	28.9	3	10	112	0.00	30.091 
06:40	33.5	29.8	33.5	84	29.2	4	12	112	0.00	30.091 
06:45	33.5	33.5	33.5	84	29.2	2	5	90	0.00	30.096 
06:50	33.5	33.5	33.5	84	29.2	3	7	90	0.00	30.096 
06:55	33.4	33.4	33.4	84	29.1	3	10	112	0.00	30.096 
07:00	33.4	33.4	33.4	84	29.1	3	7	22	0.00	30.100 
07:05	33.4	33.4	33.4	84	29.1	3	7	112	0.00	30.100 
07:10	33.4	33.4	33.4	84	29.1	2	10	112	0.00	30.100 
07:15	33.4	33.4	33.4	84	29.1	3	11	90	0.00	30.101 
07:20	33.4	33.4	33.4	84	29.1	2	6	90	0.00	30.101 
07:25	33.4	33.4	33.4	84	29.1	2	5	135	0.00	30.101 
07:30	33.4	33.4	33.4	84	29.1	3	7	112	0.00	30.092 
07:35	33.4	33.4	33.4	85	29.4	2	7	90	0.00	30.092 
07:40	33.4	33.4	33.4	85	29.4	2	6	90	0.00	30.092 
07:45	33.4	33.4	33.4	85	29.4	3	7	112	0.00	30.089 
07:50	33.4	33.4	33.4	85	29.4	3	9	112	0.00	30.089 
07:55	33.4	29.7	33.4	85	29.4	4	13	112	0.00	30.089 
08:00	33.4	33.4	33.4	85	29.4	3	9	112	0.00	30.092 
08:05	33.5	33.5	33.5	85	29.5	1	4	68	0.00	30.092 
08:10	33.4	29.7	33.4	85	29.4	4	11	112	0.00	30.092 
08:15	33.5	33.5	33.5	85	29.5	2	5	90	0.00	30.092 
08:20	33.5	33.5	33.5	85	29.5	3	7	90	0.00	30.092 
08:25	33.5	33.5	33.5	85	29.5	2	6	45	0.00	30.092 
08:30	33.5	33.5	33.5	85	29.5	2	9	90	0.00	30.092 
08:35	33.5	33.5	33.5	85	29.5	3	8	112	0.00	30.092 
08:40	33.7	33.7	33.7	85	29.7	2	6	112	0.00	30.092 
08:45	33.7	33.7	33.7	85	29.7	2	9	112	0.00	30.104 
08:50	33.7	33.7	33.7	85	29.7	2	6	22	0.00	30.104 
08:55	33.8	33.8	33.8	85	29.8	1	6	112	0.00	30.104 
09:00	34.0	34.0	34.0	85	30.0	2	6	112	0.00	30.110 
09:05	34.1	34.1	34.1	84	29.8	3	7	112	0.00	30.110 
09:10	34.1	34.1	34.1	85	30.1	2	7	90	0.00	30.110 
09:15	34.3	34.3	34.3	84	30.0	2	6	90	0.00	30.118 
09:20	34.4	34.4	34.4	84	30.1	2	7	112	0.00	30.118 
09:25	34.6	34.6	34.6	84	30.3	2	10	112	0.00	30.118 
09:30	34.7	34.7	34.7	84	30.4	2	5	90	0.00	30.117 
09:35	34.9	34.9	34.9	84	30.6	3	8	90	0.00	30.117 
09:40	35.0	35.0	35.0	84	30.7	1	6	22	0.00	30.117 
09:45	35.3	35.3	35.3	83	30.7	2	7	22	0.00	30.113 
09:50	35.6	35.6	35.6	83	31.0	2	6	90	0.00	30.113 
09:55	35.9	35.9	35.9	82	31.0	2	6	45	0.00	30.113 
10:00	36.0	32.7	36.0	81	30.7	4	9	90	0.00	30.108 
10:05	36.3	36.3	36.3	81	31.0	2	9	22	0.00	30.108 
10:10	36.6	33.4	36.6	80	31.0	4	10	112	0.00	30.108 
10:15	36.9	36.9	36.9	81	31.6	2	5	68	0.00	30.107 
10:20	37.0	37.0	37.0	80	31.4	3	9	112	0.00	30.107 
10:25	37.3	37.3	37.3	79	31.4	3	10	90	0.00	30.107 
10:30	37.6	37.6	37.6	79	31.7	2	7	90	0.00	30.104 
10:35	37.8	33.9	37.8	78	31.6	5	12	90	0.00	30.104 
10:40	37.9	37.9	37.9	78	31.7	3	9	112	0.00	30.104 
10:45	38.2	38.2	38.2	77	31.6	3	12	112	0.00	30.103 
10:50	38.8	38.8	38.8	77	32.2	2	7	90	0.00	30.103 
10:55	39.1	39.1	39.1	76	32.2	3	6	22	0.00	30.103 
11:00	39.5	39.5	39.5	75	32.2	3	8	112	0.00	30.100 
11:05	39.8	39.8	39.8	74	32.2	3	9	112	0.00	30.100 
11:10	39.9	39.9	39.9	74	32.3	3	7	112	0.00	30.100 
11:15	40.2	40.2	40.2	74	32.6	2	6	112	0.00	30.090 
11:20	40.6	40.6	40.6	75	33.3	2	6	90	0.00	30.090 
11:25	40.9	40.9	40.9	73	32.9	3	9	90	0.00	30.090 
11:30	41.2	41.2	41.2	73	33.2	3	7	22	0.00	30.092 
11:35	41.6	41.6	41.6	72	33.3	2	6	22	0.00	30.092 
11:40	42.1	42.1	42.1	72	33.7	3	9	45	0.00	30.092 
11:45	41.8	41.8	41.8	71	33.1	2	11	112	0.00	30.099 
11:50	41.9	41.9	41.9	71	33.2	2	9	90	0.00	30.099 
11:55	42.3	42.3	42.3	71	33.6	3	10	112	0.00	30.099 
12:00	42.6	42.6	42.6	70	33.5	3	9	90	0.00	30.096 
12:05	42.6	40.3	42.6	70	33.5	4	11	112	0.00	30.096 
12:10	42.6	42.6	42.6	70	33.5	3	10	22	0.00	30.096 
12:15	42.9	42.9	42.9	70	33.8	3	9	112	0.00	30.090 
12:20	43.2	43.2	43.2	70	34.1	2	9	90	0.00	30.090 
12:25	43.3	43.3	43.3	69	33.8	3	8	112	0.00	30.090 
12:30	43.6	41.5	43.6	69	34.1	4	10	112	0.00	30.087 
12:35	43.9	43.9	43.9	69	34.4	3	11	112	0.00	30.087 
12:40	44.5	44.5	44.5	70	35.3	3	9	112	0.00	30.087 
12:45	44.5	44.5	44.5	68	34.6	3	7	22	0.00	30.086 
12:50	44.5	41.8	44.5	68	34.6	5	12	112	0.00	30.086 
12:55	44.2	41.4	44.2	69	34.7	5	11	112	0.00	30.086 
13:00	44.3	44.3	44.3	69	34.8	3	10	22	0.00	30.084 
13:05	44.6	44.6	44.6	69	35.1	3	11	112	0.00	30.084 
13:10	44.8	42.1	44.8	68	34.9	5	11	112	0.00	30.084 
13:15	45.1	45.1	45.1	67	34.8	3	6	22	0.00	30.080 
13:20	45.2	45.2	45.2	68	35.3	2	6	45	0.00	30.080 
13:25	45.7	43.9	45.7	66	35.0	4	10	22	0.00	30.080 
13:30	45.7	45.7	45.7	67	35.4	3	10	112	0.00	30.067 
13:35	45.8	45.8	45.8	65	34.7	3	9	22	0.00	30.067 
13:40	46.1	46.1	46.1	66	35.4	2	5	90	0.00	30.067 
13:45	46.2	44.5	46.2	65	35.1	4	11	90	0.00	30.054 
13:50	46.4	44.7	46.4	65	35.3	4	13	112	0.00	30.054 
13:55	46.7	46.7	46.7	64	35.2	3	10	22	0.00	30.054 
14:00	47.0	45.4	47.0	64	35.5	4	13	112	0.00	30.053 
14:05	47.3	47.3	47.3	65	36.1	2	8	22	0.00	30.053 
14:10	47.7	47.7	47.7	64	36.1	3	10	112	0.00	30.053 
14:15	48.2	48.2	48.2	63	36.2	3	7	68	0.00	30.041 
14:20	48.5	48.5	48.5	64	36.9	2	6	112	0.00	30.041 
14:25	48.8	47.5	48.8	62	36.4	4	10	90	0.00	30.041 
14:30	48.6	45.5	48.6	62	36.2	7	14	112	0.00	30.024 
14:35	48.8	47.5	48.8	64	37.2	4	12	112	0.00	30.024 
14:40	49.5	49.5	49.5	63	37.4	3	12	90	0.00	30.024 
14:45	49.8	48.6	49.8	61	36.9	4	9	112	0.00	30.023 
14:50	50.2	50.2	50.2	61	37.3	3	9	45	0.00	30.023 
14:55	50.7	50.7	50.7	59	36.9	3	11	90	0.00	30.023 
15:00	50.5	50.5	50.5	60	37.1	4	11	45	0.00	30.016 
15:05	50.2	50.2	50.2	59	36.4	7	14	112	0.00	30.016 
15:10	50.4	50.4	50.4	61	37.5	4	13	112	0.00	30.016 
15:15	51.0	51.0	51.0	60	37.6	3	10	45	0.00	30.004 
15:20	51.0	51.0	51.0	57	36.3	6	13	112	0.00	30.004 
15:25	51.3	51.3	51.3	59	37.5	4	10	112	0.00	30.004 
15:30	51.7	51.7	51.7	57	37.0	4	11	112	0.00	29.999 
15:35	51.6	51.6	51.6	57	36.9	5	12	112	0.00	29.999 
15:40	51.6	51.6	51.6	58	37.3	3	10	112	0.00	29.999 
15:45	51.7	51.7	51.7	58	37.4	3	11	45	0.00	29.987 
15:50	51.7	51.7	51.7	58	37.4	3	10	112	0.00	29.987 
15:55	51.7	51.7	51.7	57	37.0	5	15	112	0.00	29.987 
16:00	51.7	51.7	51.7	58	37.4	4	12	90	0.00	29.988 
16:05	52.2	52.2	52.2	57	37.4	3	10	90	0.00	29.988 
16:10	52.5	52.5	52.5	57	37.7	2	6	45	0.00	29.988 
16:15	52.3	52.3	52.3	56	37.1	3	7	112	0.00	29.984 
16:20	52.0	52.0	52.0	58	37.7	3	11	90	0.00	29.984 
16:25	52.2	52.2	52.2	57	37.4	3	7	68	0.00	29.984 
16:30	52.0	52.0	52.0	57	37.2	2	9	90	0.00	29.981 
16:35	52.0	52.0	52.0	57	37.2	3	9	45	0.00	29.981 
16:40	51.9	51.9	51.9	57	37.1	3	9	22	0.00	29.981 
16:45	51.7	51.7	51.7	58	37.4	3	10	112	0.00	29.981 
16:50	51.7	51.7	51.7	58	37.4	2	9	22	0.00	29.981 
16:55	51.7	51.7	51.7	58	37.4	3	10	112	0.00	29.981 
17:00	51.6	51.6	51.6	57	36.9	3	10	45	0.00	29.977 
17:05	51.6	51.6	51.6	58	37.3	3	10	112	0.00	29.977 
17:10	51.4	51.4	51.4	57	36.7	4	12	90	0.00	29.977 
17:15	51.3	51.3	51.3	58	37.0	6	14	112	0.00	29.985 
17:20	51.1	51.1	51.1	59	37.3	4	14	112	0.00	29.985 
17:25	51.1	51.1	51.1	58	36.8	4	12	112	0.00	29.985 
17:30	51.0	51.0	51.0	59	37.2	5	12	112	0.00	29.977 
17:35	50.8	50.8	50.8	59	37.0	3	12	112	0.00	29.977 
17:40	50.8	50.8	50.8	58	36.6	3	6	45	0.00	29.977 
17:45	50.7	50.7	50.7	58	36.5	4	14	112	0.00	29.976 
17:50	50.5	50.5	50.5	59	36.7	4	11	112	0.00	29.976 
17:55	50.4	50.4	50.4	59	36.6	3	7	90	0.00	29.976 
18:00	50.2	50.2	50.2	59	36.4	3	11	22	0.00	29.976 
18:05	50.1	50.1	50.1	60	36.8	3	9	112	0.00	29.976 
18:10	49.8	49.8	49.8	60	36.5	3	12	135	0.00	29.976 
18:15	49.8	49.8	49.8	60	36.5	3	7	45	0.00	29.975 
18:20	49.6	49.6	49.6	61	36.7	2	6	45	0.00	29.975 
18:25	49.5	49.5	49.5	61	36.6	3	11	45	0.00	29.975 
18:30	49.4	49.4	49.4	61	36.5	3	10	45	0.00	29.971 
18:35	49.2	47.9	49.2	61	36.3	4	9	90	0.00	29.971 
18:40	49.2	49.2	49.2	61	36.3	2	7	112	0.00	29.971 
18:45	49.1	49.1	49.1	62	36.6	3	8	112	0.00	29.974 
18:50	49.1	47.2	49.1	62	36.6	5	18	112	0.00	29.974 
18:55	48.9	48.9	48.9	62	36.5	3	10	112	0.00	29.974 
19:00	48.6	47.3	48.6	63	36.6	4	11	112	0.00	29.979 
19:05	48.3	46.2	48.3	63	36.3	5	10	90	0.00	29.979 
19:10	48.2	46.8	48.2	63	36.2	4	11	90	0.00	29.979 
19:15	47.7	45.5	47.7	63	35.7	5	13	112	0.00	29.978 
19:20	47.4	45.9	47.4	63	35.4	4	12	112	0.00	29.978 
19:25	47.3	45.8	47.3	63	35.4	4	12	112	0.00	29.978 
19:30	47.1	47.1	47.1	64	35.6	2	8	22	0.00	29.970 
19:35	47.0	47.0	47.0	64	35.5	3	10	45	0.00	29.970 
19:40	46.8	46.8	46.8	65	35.7	3	7	68	0.00	29.970 
19:45	46.7	46.7	46.7	65	35.6	2	7	45	0.00	29.958 
19:50	46.7	46.7	46.7	65	35.6	2	6	90	0.00	29.958 
19:55	46.5	46.5	46.5	65	35.4	2	7	112	0.00	29.958 
20:00	46.4	46.4	46.4	65	35.3	3	10	112	0.00	29.969 
20:05	46.4	44.7	46.4	65	35.3	4	10	112	0.00	29.969 
20:10	46.4	46.4	46.4	65	35.3	2	6	22	0.00	29.969 
20:15	46.2	46.2	46.2	66	35.5	2	4	22	0.00	29.957 
20:20	46.1	46.1	46.1	65	35.0	2	6	22	0.00	29.957 
20:25	46.1	46.1	46.1	65	35.0	3	7	112	0.00	29.957 
20:30	46.1	46.1	46.1	66	35.4	2	6	90	0.00	29.975 
20:35	46.0	46.0	46.0	66	35.3	2	9	112	0.00	29.975 
20:40	45.8	45.8	45.8	68	35.8	2	7	112	0.00	29.975 
20:45	45.7	45.7	45.7	69	36.1	1	4	90	0.00	29.963 
20:50	45.5	45.5	45.5	69	35.9	3	7	112	0.00	29.963 
20:55	45.4	45.4	45.4	69	35.8	3	9	112	0.00	29.963 
21:00	45.2	45.2	45.2	70	36.0	2	6	112	0.00	29.964 
21:05	45.1	45.1	45.1	70	35.9	2	10	22	0.00	29.964 
21:10	44.9	44.9	44.9	71	36.1	3	7	112	0.00	29.964 
21:15	44.9	44.9	44.9	71	36.1	3	10	112	0.00	29.964 
21:20	44.8	44.8	44.8	71	36.0	3	9	90	0.00	29.964 
21:25	44.6	44.6	44.6	71	35.8	3	7	112	0.00	29.964 
21:30	44.5	44.5	44.5	71	35.7	2	7	90	0.00	29.971 
21:35	44.3	42.3	44.3	71	35.5	4	7	112	0.00	29.971 
21:40	44.3	44.3	44.3	72	35.9	3	10	112	0.00	29.971 
21:45	44.2	44.2	44.2	73	36.1	3	11	90	0.00	29.975 
21:50	44.1	41.3	44.1	73	36.0	5	10	90	0.00	29.975 
21:55	43.9	41.8	43.9	73	35.8	4	11	90	0.00	29.975 
22:00	43.6	40.7	43.6	74	35.9	5	10	90	0.00	29.979 
22:05	43.6	40.7	43.6	73	35.5	5	11	112	0.00	29.979 
22:10	43.6	43.6	43.6	73	35.5	3	7	112	0.00	29.979 
22:15	43.5	41.4	43.5	72	35.1	4	11	112	0.00	29.977 
22:20	43.3	43.3	43.3	73	35.2	3	13	112	0.00	29.977 
22:25	43.2	43.2	43.2	73	35.1	2	7	112	0.00	29.977 
22:30	43.1	43.1	43.1	72	34.7	2	5	22	0.00	29.972 
22:35	42.9	42.9	42.9	73	34.9	2	6	45	0.00	29.972 
22:40	42.8	42.8	42.8	74	35.1	2	7	68	0.00	29.972 
22:45	42.5	42.5	42.5	75	35.1	2	5	68	0.00	29.960 
22:50	42.3	42.3	42.3	74	34.6	2	6	68	0.00	29.960 
22:55	42.3	42.3	42.3	74	34.6	3	7	45	0.00	29.960 
23:00	42.3	42.3	42.3	74	34.6	2	6	45	0.00	29.947 
23:05	42.3	42.3	42.3	74	34.6	3	7	68	0.00	29.947 
23:10	42.3	42.3	42.3	74	34.6	3	10	90	0.00	29.947 
23:15	42.3	42.3	42.3	73	34.3	2	7	45	0.00	29.940 
23:20	42.3	42.3	42.3	73	34.3	3	10	112	0.00	29.940 
23:25	42.5	42.5	42.5	72	34.1	3	11	112	0.00	29.940 
23:30	42.5	42.5	42.5	72	34.1	3	10	112	0.00	29.939 
23:35	42.5	40.2	42.5	72	34.1	4	7	112	0.00	29.939 
23:40	42.5	39.4	42.5	71	33.8	5	10	90	0.00	29.939 
23:45	42.3	40.0	42.3	71	33.6	4	12	112	0.00	29.943 
23:50	42.3	39.2	42.3	71	33.6	5	11	112	0.00	29.943 
23:55	42.3	42.3	42.3	72	33.9	2	11	112	0.00	29.943 

CoCoRaHS
IN-AL-39
A2 Web Hosting
Creative Commons License
GoDaddy
search engine by freefind advanced

loaded 2018-11-15 03:43:17 • last modified 2010-11-18 10:43:29
Privacy PolicyDisclaimer
• wx.awcolley.com is powered by PmWiki v.2002016 •
• all content (unless otherwise noted) © 2018 A W Colley